createdAt,value
2019-05-21T00:02:30.773Z,19.73
2019-05-21T00:05:01.597Z,19.60
2019-05-21T00:07:32.393Z,18.62
2019-05-21T00:10:03.660Z,19.17
2019-05-21T00:12:35.802Z,18.90
2019-05-21T00:15:07.737Z,18.42
2019-05-21T00:17:38.568Z,17.05
2019-05-21T00:20:10.233Z,16.50
2019-05-21T00:22:41.373Z,17.50
2019-05-21T00:25:17.324Z,16.23
2019-05-21T00:27:48.792Z,17.20
2019-05-21T00:30:25.056Z,16.65
2019-05-21T00:32:58.210Z,15.45
2019-05-21T00:35:36.002Z,14.18
2019-05-21T00:38:15.011Z,14.40
2019-05-21T00:40:58.635Z,15.05
2019-05-21T00:43:33.119Z,15.00
2019-05-21T00:46:05.435Z,16.20
2019-05-21T00:48:36.589Z,14.87
2019-05-21T00:51:08.778Z,15.55
2019-05-21T00:53:41.511Z,14.55
2019-05-21T00:56:12.770Z,14.58
2019-05-21T00:58:45.385Z,14.78
2019-05-21T01:01:16.674Z,13.13
2019-05-21T01:03:51.628Z,14.65
2019-05-21T01:06:24.573Z,23.55
2019-05-21T01:09:00.350Z,15.88
2019-05-21T01:11:37.597Z,14.85
2019-05-21T01:14:09.309Z,14.30
2019-05-21T01:16:41.882Z,15.15
2019-05-21T01:19:14.835Z,14.73
2019-05-21T01:21:48.946Z,14.68
2019-05-21T01:24:23.206Z,14.15
2019-05-21T01:26:54.402Z,15.70
2019-05-21T01:29:25.690Z,15.00
2019-05-21T01:32:00.936Z,15.00
2019-05-21T01:34:36.185Z,14.33
2019-05-21T01:37:10.345Z,15.48
2019-05-21T01:39:41.391Z,14.38
2019-05-21T01:42:16.105Z,15.38
2019-05-21T01:44:48.670Z,17.25
2019-05-21T01:47:20.207Z,25.35
2019-05-21T01:49:51.779Z,21.87
2019-05-21T01:52:27.787Z,18.27
2019-05-21T01:55:00.731Z,16.27
2019-05-21T01:57:31.726Z,15.72
2019-05-21T02:00:03.053Z,15.95
2019-05-21T02:02:34.663Z,14.23
2019-05-21T02:05:08.016Z,14.15
2019-05-21T02:07:40.594Z,14.78
2019-05-21T02:10:12.205Z,14.50
2019-05-21T02:12:43.339Z,13.55
2019-05-21T02:15:14.407Z,14.58
2019-05-21T02:17:45.366Z,13.58
2019-05-21T02:20:20.772Z,12.78
2019-05-21T02:22:52.203Z,14.53
2019-05-21T02:25:23.188Z,12.50
2019-05-21T02:27:54.364Z,13.75
2019-05-21T02:30:31.249Z,14.07
2019-05-21T02:33:02.506Z,13.40
2019-05-21T02:35:51.019Z,13.62
2019-05-21T02:38:07.255Z,13.08
2019-05-21T02:40:42.519Z,14.05
2019-05-21T02:43:16.557Z,14.90
2019-05-21T02:45:47.732Z,15.83
2019-05-21T02:48:23.843Z,17.42
2019-05-21T02:50:58.465Z,13.38
2019-05-21T02:53:34.623Z,18.30
2019-05-21T02:56:19.558Z,19.20
2019-05-21T02:58:53.523Z,15.88
2019-05-21T03:01:25.705Z,16.02
2019-05-21T03:03:57.059Z,15.53
2019-05-21T03:06:31.104Z,15.08
2019-05-21T03:09:02.248Z,14.35
2019-05-21T03:11:33.166Z,15.08
2019-05-21T03:14:04.246Z,14.53
2019-05-21T03:16:35.240Z,13.60
2019-05-21T03:19:10.508Z,15.60
2019-05-21T03:21:41.791Z,17.15
2019-05-21T03:24:14.300Z,17.37
2019-05-21T03:26:45.338Z,17.00
2019-05-21T03:29:30.221Z,15.10
2019-05-21T03:32:01.815Z,14.43
2019-05-21T03:34:36.309Z,15.15
2019-05-21T03:37:11.910Z,15.35
2019-05-21T03:39:46.755Z,15.78
2019-05-21T03:42:17.929Z,15.80
2019-05-21T03:44:59.518Z,15.05
2019-05-21T03:47:22.323Z,15.05
2019-05-21T03:49:54.124Z,14.68
2019-05-21T03:52:25.028Z,16.32
2019-05-21T03:54:56.339Z,15.00
2019-05-21T03:57:27.610Z,14.53
2019-05-21T04:00:01.584Z,13.70
2019-05-21T04:02:40.703Z,14.10
2019-05-21T04:05:14.858Z,13.80
2019-05-21T04:11:07.875Z,14.03
2019-05-21T04:13:38.883Z,15.25
2019-05-21T04:16:14.653Z,14.95
2019-05-21T04:18:50.007Z,15.32
2019-05-21T04:21:22.496Z,14.90
2019-05-21T04:23:54.538Z,14.78
2019-05-21T04:26:25.744Z,14.40
2019-05-21T04:28:59.557Z,15.08
2019-05-21T04:31:43.947Z,13.70
2019-05-21T04:34:17.353Z,13.78
2019-05-21T04:36:48.479Z,14.28
2019-05-21T04:39:19.583Z,14.60
2019-05-21T04:41:50.698Z,15.15
2019-05-21T04:44:23.317Z,14.65
2019-05-21T04:46:54.465Z,16.48
2019-05-21T04:49:25.553Z,16.48
2019-05-21T04:51:56.845Z,15.32
2019-05-21T04:54:28.918Z,14.68
2019-05-21T04:57:00.426Z,14.35
2019-05-21T04:59:31.721Z,14.58
2019-05-21T05:02:02.947Z,13.65
2019-05-21T05:08:09.624Z,14.18
2019-05-21T05:10:41.756Z,14.87
2019-05-21T05:13:15.566Z,16.67
2019-05-21T05:15:46.964Z,14.30
2019-05-21T05:18:17.962Z,19.80
2019-05-21T05:20:50.682Z,17.90
2019-05-21T05:23:25.616Z,13.80
2019-05-21T05:25:56.859Z,13.68
2019-05-21T05:28:27.967Z,12.33
2019-05-21T05:31:00.955Z,14.60
2019-05-21T05:33:32.003Z,14.20
2019-05-21T05:36:03.088Z,17.87
2019-05-21T05:38:36.401Z,15.50
2019-05-21T05:41:08.313Z,17.27
2019-05-21T05:43:39.629Z,12.10
2019-05-21T05:46:12.496Z,13.75
2019-05-21T05:48:44.771Z,19.23
2019-05-21T05:51:15.733Z,19.70
2019-05-21T05:53:49.456Z,19.80
2019-05-21T05:56:20.839Z,19.05
2019-05-21T05:58:54.771Z,15.10
2019-05-21T06:01:26.946Z,13.08
2019-05-21T06:03:58.233Z,13.00
2019-05-21T06:06:29.596Z,11.18
2019-05-21T06:09:03.321Z,12.00
2019-05-21T06:11:45.144Z,11.93
2019-05-21T06:16:54.783Z,12.53
2019-05-21T06:19:25.786Z,13.43
2019-05-21T06:21:59.798Z,11.80
2019-05-21T06:24:31.095Z,11.70
2019-05-21T06:27:02.088Z,11.90
2019-05-21T06:29:33.670Z,11.43
2019-05-21T06:32:04.760Z,11.73
2019-05-21T06:34:48.794Z,10.88
2019-05-21T06:37:20.046Z,9.85
2019-05-21T06:39:51.240Z,11.00
2019-05-21T06:42:30.698Z,10.58
2019-05-21T06:47:35.057Z,11.73
2019-05-21T06:50:07.199Z,10.30
2019-05-21T06:52:38.322Z,10.08
2019-05-21T06:55:10.021Z,9.63
2019-05-21T06:57:40.975Z,10.45
2019-05-21T07:00:13.890Z,9.50
2019-05-21T07:02:45.270Z,12.07
2019-05-21T07:05:23.355Z,12.43
2019-05-21T07:08:31.869Z,11.60
2019-05-21T07:10:49.190Z,10.38
2019-05-21T07:13:20.189Z,10.53
2019-05-21T07:15:51.256Z,9.75
2019-05-21T07:18:27.812Z,10.13
2019-05-21T07:20:59.359Z,9.48
2019-05-21T07:23:30.281Z,10.20
2019-05-21T07:26:04.342Z,10.53
2019-05-21T07:28:35.384Z,10.85
2019-05-21T07:31:08.908Z,10.60
2019-05-21T07:33:40.256Z,10.43
2019-05-21T07:36:14.582Z,10.90
2019-05-21T07:38:53.493Z,10.65
2019-05-21T07:41:21.270Z,9.43
2019-05-21T07:44:01.029Z,9.83
2019-05-21T07:46:32.253Z,10.25
2019-05-21T07:49:03.441Z,10.58
2019-05-21T07:51:35.974Z,10.43
2019-05-21T07:54:08.309Z,9.78
2019-05-21T07:56:42.662Z,10.10
2019-05-21T07:59:15.311Z,10.43
2019-05-21T08:01:48.202Z,11.20
2019-05-21T08:04:18.854Z,10.98
2019-05-21T08:06:54.585Z,10.72
2019-05-21T08:09:25.538Z,10.85
2019-05-21T08:11:57.485Z,11.12
2019-05-21T08:14:43.407Z,10.60
2019-05-21T08:17:15.219Z,10.13
2019-05-21T08:26:21.331Z,10.38
2019-05-21T08:28:57.248Z,9.30
2019-05-21T08:31:37.771Z,10.68
2019-05-21T08:34:24.375Z,10.00
2019-05-21T08:37:04.870Z,10.90
2019-05-21T08:39:48.128Z,11.95
2019-05-21T08:42:18.878Z,11.28
2019-05-21T08:44:52.197Z,10.90
2019-05-21T08:47:33.904Z,10.58
2019-05-21T08:50:07.900Z,12.75
2019-05-21T08:52:40.314Z,11.08
2019-05-21T08:55:11.865Z,13.03
2019-05-21T08:57:44.577Z,14.03
2019-05-21T09:00:18.323Z,17.45
2019-05-21T09:02:49.540Z,18.37
2019-05-21T09:05:20.727Z,12.58
2019-05-21T09:07:53.889Z,11.80
2019-05-21T09:10:25.288Z,11.10
2019-05-21T09:12:56.724Z,10.55
2019-05-21T09:15:27.935Z,15.18
2019-05-21T09:17:59.805Z,13.25
2019-05-21T09:20:31.191Z,13.05
2019-05-21T09:23:03.555Z,12.37
2019-05-21T09:25:34.854Z,12.88
2019-05-21T09:28:06.071Z,12.63
2019-05-21T09:30:36.995Z,11.60
2019-05-21T09:33:08.048Z,10.55
2019-05-21T09:35:42.786Z,11.90
2019-05-21T09:38:14.224Z,12.15
2019-05-21T09:40:45.516Z,10.38
2019-05-21T09:43:18.783Z,9.20
2019-05-21T09:45:52.608Z,9.55
2019-05-21T09:48:23.643Z,9.28
2019-05-21T09:50:54.743Z,9.15
2019-05-21T09:53:25.670Z,8.35
2019-05-21T09:56:01.070Z,8.38
2019-05-21T09:58:35.483Z,8.13
2019-05-21T10:01:15.820Z,7.87
2019-05-21T10:03:48.048Z,8.63
2019-05-21T10:06:20.546Z,7.83
2019-05-21T10:09:02.021Z,8.55
2019-05-21T10:11:32.865Z,7.87
2019-05-21T10:14:05.888Z,7.83
2019-05-21T10:16:45.793Z,8.00
2019-05-21T10:19:17.956Z,6.97
2019-05-21T10:21:49.176Z,7.70
2019-05-21T10:27:52.829Z,7.87
2019-05-21T10:32:57.372Z,9.15
2019-05-21T10:35:29.675Z,8.43
2019-05-21T10:38:03.660Z,7.62
2019-05-21T10:40:37.202Z,8.88
2019-05-21T10:43:08.384Z,8.20
2019-05-21T10:45:41.562Z,8.35
2019-05-21T10:48:12.785Z,8.95
2019-05-21T10:50:43.654Z,9.23
2019-05-21T10:53:18.796Z,8.85
2019-05-21T10:55:50.690Z,9.98
2019-05-21T10:58:21.880Z,10.58
2019-05-21T11:00:54.351Z,10.78
2019-05-21T11:03:29.628Z,9.48
2019-05-21T11:06:09.440Z,10.43
2019-05-21T11:08:33.269Z,10.78
2019-05-21T11:11:04.281Z,12.50
2019-05-21T11:13:35.497Z,12.63
2019-05-21T11:16:07.143Z,12.33
2019-05-21T11:18:38.067Z,12.07
2019-05-21T11:21:09.653Z,11.20
2019-05-21T11:23:41.685Z,10.85
2019-05-21T11:26:15.064Z,9.45
2019-05-21T11:28:46.248Z,10.63
2019-05-21T11:31:17.507Z,10.45
2019-05-21T11:33:48.302Z,9.58
2019-05-21T11:36:19.275Z,9.20
2019-05-21T11:38:50.502Z,9.98
2019-05-21T11:41:22.429Z,8.80
2019-05-21T11:43:53.204Z,9.18
2019-05-21T11:46:24.029Z,8.45
2019-05-21T11:48:55.193Z,8.33
2019-05-21T11:51:26.244Z,9.33
2019-05-21T11:53:57.345Z,10.25
2019-05-21T11:56:28.489Z,10.18
2019-05-21T11:58:59.501Z,9.15
2019-05-21T12:01:30.725Z,7.20
2019-05-21T12:04:01.703Z,15.43
2019-05-21T12:06:32.695Z,18.60
2019-05-21T12:09:03.922Z,7.47
2019-05-21T12:11:34.818Z,7.65
2019-05-21T12:14:06.220Z,6.28
2019-05-21T12:16:37.675Z,7.03
2019-05-21T12:19:08.976Z,6.00
2019-05-21T12:21:39.973Z,6.10
2019-05-21T12:24:10.962Z,7.00
2019-05-21T12:26:42.281Z,6.90
2019-05-21T12:29:13.194Z,6.50
2019-05-21T12:31:44.253Z,6.53
2019-05-21T12:34:15.425Z,7.20
2019-05-21T12:36:46.448Z,7.17
2019-05-21T12:39:17.568Z,7.17
2019-05-21T12:41:48.825Z,6.72
2019-05-21T12:44:19.836Z,6.72
2019-05-21T12:46:50.774Z,7.05
2019-05-21T12:49:22.078Z,6.65
2019-05-21T12:51:53.093Z,6.65
2019-05-21T12:54:23.980Z,6.60
2019-05-21T12:56:55.016Z,6.70
2019-05-21T12:59:26.325Z,7.85
2019-05-21T13:01:57.370Z,7.22
2019-05-21T13:04:28.445Z,7.47
2019-05-21T13:06:59.462Z,7.22
2019-05-21T13:09:32.906Z,7.28
2019-05-21T13:12:03.138Z,8.03
2019-05-21T13:14:37.063Z,7.20
2019-05-21T13:17:08.236Z,7.87
2019-05-21T13:19:39.297Z,7.92
2019-05-21T13:22:12.884Z,7.37
2019-05-21T13:24:43.910Z,7.65
2019-05-21T13:27:14.876Z,7.87
2019-05-21T13:29:46.174Z,7.30
2019-05-21T13:32:17.059Z,7.15
2019-05-21T13:34:48.265Z,7.75
2019-05-21T13:37:22.642Z,10.08
2019-05-21T13:39:53.534Z,7.75
2019-05-21T13:42:24.717Z,7.85
2019-05-21T13:44:55.556Z,7.80
2019-05-21T13:47:26.479Z,7.35
2019-05-21T13:49:57.707Z,8.20
2019-05-21T13:52:28.937Z,8.85
2019-05-21T13:54:59.748Z,8.38
2019-05-21T13:57:30.652Z,7.97
2019-05-21T14:00:01.985Z,8.15
2019-05-21T14:02:33.749Z,7.60
2019-05-21T14:05:04.594Z,8.33
2019-05-21T14:07:35.865Z,7.62
2019-05-21T14:10:15.005Z,8.33
2019-05-21T14:12:40.600Z,7.65
2019-05-21T14:15:12.228Z,8.28
2019-05-21T14:17:43.278Z,7.72
2019-05-21T14:20:14.298Z,7.95
2019-05-21T14:22:45.541Z,8.33
2019-05-21T14:25:16.824Z,8.10
2019-05-21T14:27:47.967Z,8.08
2019-05-21T14:30:19.416Z,8.05
2019-05-21T14:32:50.676Z,8.38
2019-05-21T14:35:21.598Z,7.55
2019-05-21T14:37:52.736Z,8.38
2019-05-21T14:40:31.817Z,7.65
2019-05-21T14:42:59.655Z,8.23
2019-05-21T14:45:33.744Z,8.50
2019-05-21T14:48:01.669Z,8.18
2019-05-21T14:50:32.786Z,9.23
2019-05-21T14:53:03.856Z,8.15
2019-05-21T14:55:34.978Z,8.08
2019-05-21T14:58:05.963Z,8.45
2019-05-21T15:00:38.778Z,7.72
2019-05-21T15:03:24.183Z,7.53
2019-05-21T15:05:42.355Z,7.42
2019-05-21T15:08:13.296Z,7.95
2019-05-21T15:10:48.943Z,8.05
2019-05-21T15:13:17.165Z,8.45
2019-05-21T15:15:48.074Z,8.38
2019-05-21T15:18:21.981Z,8.43
2019-05-21T15:20:52.576Z,12.68
2019-05-21T15:23:23.607Z,9.85
2019-05-21T15:25:54.848Z,17.07
2019-05-21T15:28:26.131Z,9.00
2019-05-21T15:30:57.400Z,8.30
2019-05-21T15:33:28.636Z,9.28
2019-05-21T15:36:00.099Z,8.43
2019-05-21T15:38:48.494Z,8.53
2019-05-21T15:41:10.119Z,8.25
2019-05-21T15:43:35.906Z,8.63
2019-05-21T15:46:07.023Z,8.55
2019-05-21T15:48:37.969Z,7.55
2019-05-21T15:51:08.975Z,8.13
2019-05-21T15:53:40.022Z,8.28
2019-05-21T15:56:11.275Z,8.68
2019-05-21T15:58:42.133Z,8.95
2019-05-21T16:01:12.871Z,9.18
2019-05-21T16:03:43.795Z,8.28
2019-05-21T16:06:14.774Z,8.55
2019-05-21T16:08:45.923Z,8.95
2019-05-21T16:11:28.214Z,8.60
2019-05-21T16:13:49.792Z,8.45
2019-05-21T16:16:21.056Z,18.27
2019-05-21T16:18:51.907Z,10.20
2019-05-21T16:21:23.150Z,8.53
2019-05-21T16:23:54.258Z,10.72
2019-05-21T16:26:25.234Z,9.03
2019-05-21T16:28:56.495Z,9.15
2019-05-21T16:31:27.361Z,8.33
2019-05-21T16:33:58.148Z,8.10
2019-05-21T16:36:29.474Z,8.90
2019-05-21T16:39:00.701Z,8.90
2019-05-21T16:41:43.606Z,8.88
2019-05-21T16:44:03.976Z,9.45
2019-05-21T16:46:35.215Z,8.53
2019-05-21T16:49:06.094Z,9.75
2019-05-21T16:51:37.321Z,8.48
2019-05-21T16:54:08.636Z,9.35
2019-05-21T16:56:39.837Z,9.20
2019-05-21T16:59:13.700Z,8.43
2019-05-21T17:01:45.166Z,8.58
2019-05-21T17:07:12.472Z,8.75
2019-05-21T17:09:43.340Z,8.85
2019-05-21T17:12:14.535Z,8.93
2019-05-21T17:14:45.779Z,8.38
2019-05-21T17:17:16.666Z,8.15
2019-05-21T17:19:47.578Z,8.48
2019-05-21T17:22:18.717Z,10.08
2019-05-21T17:24:50.444Z,9.73
2019-05-21T17:27:21.530Z,10.95
2019-05-21T17:29:52.803Z,9.95
2019-05-21T17:32:23.907Z,11.30
2019-05-21T17:34:54.950Z,10.48
2019-05-21T17:37:25.999Z,11.22
2019-05-21T17:39:57.143Z,11.57
2019-05-21T17:42:27.933Z,11.60
2019-05-21T17:44:59.196Z,11.48
2019-05-21T17:47:30.317Z,10.50
2019-05-21T17:50:01.293Z,10.85
2019-05-21T17:52:32.273Z,11.05
2019-05-21T17:55:03.458Z,10.70
2019-05-21T17:57:35.044Z,10.65
2019-05-21T18:00:08.558Z,11.25
2019-05-21T18:02:40.541Z,11.22
2019-05-21T18:05:12.497Z,11.28
2019-05-21T18:07:44.618Z,10.88
2019-05-21T18:10:17.950Z,9.95
2019-05-21T18:12:48.891Z,10.25
2019-05-21T18:15:20.147Z,10.55
2019-05-21T18:17:51.380Z,10.78
2019-05-21T18:20:22.649Z,10.80
2019-05-21T18:22:55.378Z,10.90
2019-05-21T18:25:27.636Z,10.55
2019-05-21T18:28:05.303Z,9.85
2019-05-21T18:30:36.481Z,10.72
2019-05-21T18:33:07.838Z,10.53
2019-05-21T18:35:40.138Z,10.13
2019-05-21T18:38:12.842Z,11.12
2019-05-21T18:40:43.994Z,9.78
2019-05-21T18:43:15.155Z,10.30
2019-05-21T18:45:45.828Z,10.78
2019-05-21T18:48:16.961Z,10.05
2019-05-21T18:50:48.010Z,10.45
2019-05-21T18:53:19.115Z,9.98
2019-05-21T18:55:50.262Z,9.70
2019-05-21T18:58:21.553Z,9.73
2019-05-21T19:00:52.550Z,10.38
2019-05-21T19:03:26.527Z,11.08
2019-05-21T19:05:56.181Z,12.30
2019-05-21T19:08:26.925Z,11.25
2019-05-21T19:10:57.996Z,10.58
2019-05-21T19:13:28.887Z,11.05
2019-05-21T19:15:59.795Z,10.50
2019-05-21T19:18:30.919Z,9.93
2019-05-21T19:21:01.834Z,11.63
2019-05-21T19:23:32.918Z,10.93
2019-05-21T19:26:03.894Z,10.90
2019-05-21T19:28:34.878Z,11.55
2019-05-21T19:31:05.860Z,12.90
2019-05-21T19:33:37.088Z,14.33
2019-05-21T19:36:11.400Z,17.25
2019-05-21T19:38:42.619Z,16.07
2019-05-21T19:41:13.723Z,15.68
2019-05-21T19:43:44.816Z,14.63
2019-05-21T19:46:15.895Z,14.87
2019-05-21T19:48:46.884Z,15.25
2019-05-21T19:51:17.827Z,14.75
2019-05-21T19:53:48.983Z,13.70
2019-05-21T19:56:19.895Z,13.32
2019-05-21T19:58:51.181Z,12.90
2019-05-21T20:01:22.288Z,13.25
2019-05-21T20:03:53.884Z,12.03
2019-05-21T20:06:25.078Z,10.98
2019-05-21T20:08:57.278Z,11.30
2019-05-21T20:11:28.385Z,10.43
2019-05-21T20:13:59.584Z,11.70
2019-05-21T20:16:31.049Z,10.48
2019-05-21T20:19:02.466Z,11.40
2019-05-21T20:21:34.244Z,9.35
2019-05-21T20:24:07.341Z,10.80
2019-05-21T20:26:39.108Z,9.90
2019-05-21T20:29:10.254Z,9.60
2019-05-21T20:31:42.159Z,9.45
2019-05-21T20:34:13.388Z,10.45
2019-05-21T20:36:44.691Z,10.03
2019-05-21T20:39:17.100Z,10.28
2019-05-21T20:41:49.307Z,9.65
2019-05-21T20:44:21.027Z,9.43
2019-05-21T20:46:52.921Z,9.75
2019-05-21T20:49:24.523Z,9.43
2019-05-21T20:51:56.077Z,9.03
2019-05-21T20:54:29.186Z,9.30
2019-05-21T20:57:00.095Z,8.68
2019-05-21T20:59:30.882Z,9.13
2019-05-21T21:02:05.647Z,9.70
2019-05-21T21:04:34.602Z,10.72
2019-05-21T21:07:06.553Z,11.10
2019-05-21T21:09:37.563Z,11.00
2019-05-21T21:12:09.997Z,8.85
2019-05-21T21:14:41.281Z,7.58
2019-05-21T21:17:12.975Z,6.45
2019-05-21T21:19:44.599Z,6.67
2019-05-21T21:22:15.828Z,6.53
2019-05-21T21:24:47.293Z,6.10
2019-05-21T21:27:18.296Z,5.95
2019-05-21T21:29:49.224Z,4.55
2019-05-21T21:32:20.489Z,4.45
2019-05-21T21:34:51.666Z,4.15
2019-05-21T21:37:23.226Z,4.00
2019-05-21T21:39:54.479Z,4.90
2019-05-21T21:42:25.347Z,4.15
2019-05-21T21:44:56.821Z,4.20
2019-05-21T21:47:28.993Z,5.47
2019-05-21T21:50:00.762Z,5.10
2019-05-21T21:52:32.851Z,5.28
2019-05-21T21:55:05.389Z,4.42
2019-05-21T21:57:36.393Z,4.78
2019-05-21T22:00:10.183Z,4.03
2019-05-21T22:02:41.171Z,3.70
2019-05-21T22:05:13.610Z,3.55
2019-05-21T22:07:44.774Z,3.67
2019-05-21T22:10:15.690Z,3.67
2019-05-21T22:12:46.754Z,4.33
2019-05-21T22:15:17.775Z,4.40
2019-05-21T22:17:49.492Z,3.72
2019-05-21T22:20:22.233Z,4.30
2019-05-21T22:22:53.360Z,4.00
2019-05-21T22:25:24.735Z,4.00
2019-05-21T22:27:57.899Z,3.90
2019-05-21T22:30:30.370Z,3.85
2019-05-21T22:33:01.543Z,4.10
2019-05-21T22:35:32.400Z,4.12
2019-05-21T22:38:03.639Z,3.62
2019-05-21T22:40:34.842Z,3.37
2019-05-21T22:43:06.128Z,3.17
2019-05-21T22:45:37.096Z,3.45
2019-05-21T22:48:08.802Z,3.67
2019-05-21T22:50:39.549Z,3.55
2019-05-21T22:53:11.018Z,4.83
2019-05-21T22:55:42.070Z,3.90
2019-05-21T22:58:12.937Z,3.47
2019-05-21T23:00:44.405Z,3.72
2019-05-21T23:03:15.689Z,3.60
2019-05-21T23:05:46.369Z,3.52
2019-05-21T23:08:18.671Z,3.75
2019-05-21T23:10:49.828Z,3.80
2019-05-21T23:13:21.703Z,3.47
2019-05-21T23:15:53.971Z,2.90
2019-05-21T23:18:24.936Z,3.20
2019-05-21T23:20:58.530Z,3.47
2019-05-21T23:23:29.640Z,3.65
2019-05-21T23:26:00.886Z,4.17
2019-05-21T23:28:32.274Z,3.92
2019-05-21T23:31:04.371Z,3.58
2019-05-21T23:33:36.317Z,3.92
2019-05-21T23:36:07.983Z,3.62
2019-05-21T23:38:39.546Z,4.37
2019-05-21T23:41:11.026Z,3.70
2019-05-21T23:43:42.646Z,4.87
2019-05-21T23:46:15.625Z,4.75
2019-05-21T23:48:46.582Z,4.40
2019-05-21T23:51:17.720Z,3.95
2019-05-21T23:53:49.218Z,4.42
2019-05-21T23:56:20.225Z,9.25
2019-05-21T23:58:51.480Z,6.47
